Time;durP1;ratioP1;P1;durP2;ratioP2;P2;SDS_P1;SDS_P2;PMS_P1;PMS_P2;Temp;Humidity;BMP_temperature;BMP_pressure;BME280_temperature;BME280_humidity;BME280_pressure;Samples;Min_cycle;Max_cycle;Signal;HPM_P1;HPM_P2
2023/09/12 00:02:50;;;;;;;14.40;10.40;;;;;;;;;;103801;1289;545060;-76
2023/09/12 00:06:28;;;;;;;16.60;10.80;;;;;;;;;;103790;1293;545896;-76
2023/09/12 00:10:05;;;;;;;13.50;9.90;;;;;;;;;;103767;1289;544999;-75
2023/09/12 00:13:43;;;;;;;13.20;10.50;;;;;;;;;;103763;1292;546537;-75
2023/09/12 00:17:20;;;;;;;13.00;10.20;;;;;;;;;;104118;1290;545703;-75
2023/09/12 00:21:00;;;;;;;12.80;9.80;;;;;;;;;;103766;1291;544790;-75
2023/09/12 00:24:35;;;;;;;13.60;10.20;;;;;;;;;;103753;1291;544989;-75
2023/09/12 00:28:14;;;;;;;13.10;10.60;;;;;;;;;;103509;1295;545155;-75
2023/09/12 00:31:50;;;;;;;14.30;10.50;;;;;;;;;;103761;1292;545039;-75
2023/09/12 00:35:28;;;;;;;13.80;10.00;;;;;;;;;;103828;1289;545258;-75
2023/09/12 00:39:05;;;;;;;15.80;11.90;;;;;;;;;;103766;1289;544793;-75
2023/09/12 00:42:42;;;;;;;18.50;12.40;;;;;;;;;;103802;1292;544993;-75
2023/09/12 00:46:21;;;;;;;18.00;12.60;;;;;;;;;;103770;1291;544934;-76
2023/09/12 00:49:58;;;;;;;17.30;12.30;;;;;;;;;;103698;1289;545807;-75
2023/09/12 00:53:35;;;;;;;15.10;11.10;;;;;;;;;;103876;1289;545447;-75
2023/09/12 00:57:13;;;;;;;16.10;11.40;;;;;;;;;;103933;1295;545607;-75
2023/09/12 01:00:49;;;;;;;18.90;13.00;;;;;;;;;;103906;1292;545475;-75
2023/09/12 01:04:27;;;;;;;16.80;12.20;;;;;;;;;;103780;1290;545260;-75
2023/09/12 01:08:05;;;;;;;18.30;12.20;;;;;;;;;;103835;1301;545447;-75
2023/09/12 01:11:42;;;;;;;15.30;11.30;;;;;;;;;;103778;1292;546034;-75
2023/09/12 01:15:19;;;;;;;17.80;13.20;;;;;;;;;;103850;1302;544799;-75
2023/09/12 01:18:57;;;;;;;19.30;14.10;;;;;;;;;;104055;1291;544987;-75
2023/09/12 01:22:37;;;;;;;17.60;12.70;;;;;;;;;;104060;1289;545338;-75
2023/09/12 01:26:31;;;;;;;15.80;11.70;;;;;;;;;;103779;1295;545000;-76
2023/09/12 01:29:53;;;;;;;14.40;11.00;;;;;;;;;;104684;1293;545608;-74
2023/09/12 01:33:27;;;;;;;17.50;12.80;;;;;;;;;;104575;1282;545028;-76
2023/09/12 01:37:04;;;;;;;16.20;12.40;;;;;;;;;;103753;1291;544941;-75
2023/09/12 01:40:52;;;;;;;17.00;12.00;;;;;;;;;;103775;1300;544870;-75
2023/09/12 01:44:22;;;;;;;15.10;10.60;;;;;;;;;;103821;1292;545340;-76
2023/09/12 01:47:58;;;;;;;14.40;10.80;;;;;;;;;;103924;1289;544735;-76
2023/09/12 01:51:35;;;;;;;15.50;12.50;;;;;;;;;;103756;1301;545599;-76
2023/09/12 01:55:12;;;;;;;14.00;11.70;;;;;;;;;;104139;1289;545864;-76
2023/09/12 01:58:49;;;;;;;15.40;11.50;;;;;;;;;;103828;1291;544855;-76
2023/09/12 02:02:27;;;;;;;15.30;12.20;;;;;;;;;;104974;1283;545085;-76
2023/09/12 02:06:04;;;;;;;17.00;14.20;;;;;;;;;;103794;1289;545253;-75
2023/09/12 02:09:42;;;;;;;17.40;13.20;;;;;;;;;;103794;1289;546014;-75
2023/09/12 02:13:18;;;;;;;17.70;12.60;;;;;;;;;;103814;1289;544943;-75
2023/09/12 02:16:56;;;;;;;17.40;12.60;;;;;;;;;;103822;1289;545318;-75
2023/09/12 02:20:37;;;;;;;16.00;12.00;;;;;;;;;;104093;1289;545273;-75
2023/09/12 02:24:11;;;;;;;19.20;14.00;;;;;;;;;;103800;1289;545882;-75
2023/09/12 02:27:49;;;;;;;15.90;12.60;;;;;;;;;;103754;1291;544717;-75
2023/09/12 02:31:26;;;;;;;17.20;12.70;;;;;;;;;;103811;1289;545397;-75
2023/09/12 02:35:09;;;;;;;17.70;12.00;;;;;;;;;;103608;1291;547997;-75
2023/09/12 02:38:47;;;;;;;16.10;12.60;;;;;;;;;;103550;1292;545404;-75
2023/09/12 02:42:18;;;;;;;20.00;12.80;;;;;;;;;;103881;1293;544964;-76
2023/09/12 02:45:56;;;;;;;14.70;11.90;;;;;;;;;;103756;1292;544709;-75
2023/09/12 02:49:34;;;;;;;17.20;11.80;;;;;;;;;;103764;1292;545957;-76
2023/09/12 02:53:11;;;;;;;17.80;12.20;;;;;;;;;;103788;1292;545611;-75
2023/09/12 02:56:48;;;;;;;19.20;13.00;;;;;;;;;;103903;1289;545351;-75
2023/09/12 03:00:26;;;;;;;18.30;12.70;;;;;;;;;;103759;1290;544774;-75
2023/09/12 03:04:03;;;;;;;17.20;12.50;;;;;;;;;;103890;1292;544718;-75
2023/09/12 03:07:41;;;;;;;16.40;12.00;;;;;;;;;;103744;1292;544955;-75
2023/09/12 03:11:18;;;;;;;18.20;13.00;;;;;;;;;;103742;1292;544933;-75
2023/09/12 03:14:52;;;;;;;20.30;13.30;;;;;;;;;;104154;1289;545447;-75
2023/09/12 03:18:34;;;;;;;18.10;12.70;;;;;;;;;;103882;1289;545531;-74
2023/09/12 03:22:12;;;;;;;19.60;12.70;;;;;;;;;;103750;1290;545435;-76
2023/09/12 03:25:49;;;;;;;16.20;11.70;;;;;;;;;;103768;1289;544913;-75
2023/09/12 03:29:27;;;;;;;17.00;12.00;;;;;;;;;;103786;1292;544921;-76
2023/09/12 03:33:05;;;;;;;17.20;12.50;;;;;;;;;;103776;1292;545007;-76
2023/09/12 03:36:42;;;;;;;17.80;11.70;;;;;;;;;;104075;1288;545473;-75
2023/09/12 03:40:19;;;;;;;16.30;12.10;;;;;;;;;;103786;1292;545515;-75
2023/09/12 03:43:57;;;;;;;16.60;12.30;;;;;;;;;;103767;1292;544767;-75
2023/09/12 03:47:34;;;;;;;13.90;10.90;;;;;;;;;;103809;1289;544842;-76
2023/09/12 03:51:12;;;;;;;16.80;11.30;;;;;;;;;;103957;1291;545316;-76
2023/09/12 03:54:49;;;;;;;15.30;10.20;;;;;;;;;;103822;1294;545048;-75
2023/09/12 03:58:26;;;;;;;17.30;12.30;;;;;;;;;;103743;1292;544860;-76
2023/09/12 04:02:04;;;;;;;19.40;13.90;;;;;;;;;;103997;1289;545986;-75
2023/09/12 04:05:42;;;;;;;17.40;14.80;;;;;;;;;;103777;1291;544886;-75
2023/09/12 04:09:19;;;;;;;19.10;13.20;;;;;;;;;;103888;1293;544965;-75
2023/09/12 04:12:56;;;;;;;17.10;12.60;;;;;;;;;;103780;1292;544924;-75
2023/09/12 04:16:34;;;;;;;19.80;13.60;;;;;;;;;;103726;1292;544763;-76
2023/09/12 04:20:14;;;;;;;20.10;13.50;;;;;;;;;;103717;1295;544780;-76
2023/09/12 04:23:50;;;;;;;19.00;12.70;;;;;;;;;;103761;1296;544892;-75
2023/09/12 04:27:26;;;;;;;18.60;13.00;;;;;;;;;;103729;1293;545097;-75
2023/09/12 04:31:04;;;;;;;19.90;13.10;;;;;;;;;;103751;1294;544809;-75
2023/09/12 04:34:42;;;;;;;19.40;13.50;;;;;;;;;;103731;1291;545006;-76
2023/09/12 04:38:20;;;;;;;18.60;12.50;;;;;;;;;;103788;1293;544752;-76
2023/09/12 04:41:52;;;;;;;18.80;12.20;;;;;;;;;;103980;1295;545043;-75
2023/09/12 04:45:34;;;;;;;18.80;12.90;;;;;;;;;;103860;1292;545766;-75
2023/09/12 04:49:12;;;;;;;19.80;13.40;;;;;;;;;;103741;1289;544964;-76
2023/09/12 04:52:49;;;;;;;18.30;12.80;;;;;;;;;;103760;1292;544942;-75
2023/09/12 04:56:27;;;;;;;20.50;12.30;;;;;;;;;;103744;1290;545813;-75
2023/09/12 05:00:05;;;;;;;18.70;12.90;;;;;;;;;;103806;1289;544962;-76
2023/09/12 05:03:43;;;;;;;17.60;12.80;;;;;;;;;;103714;1292;544752;-75
2023/09/12 05:07:19;;;;;;;19.20;13.40;;;;;;;;;;104093;1289;546128;-75
2023/09/12 05:10:57;;;;;;;19.20;13.00;;;;;;;;;;104104;1289;544846;-75
2023/09/12 05:14:34;;;;;;;19.40;11.10;;;;;;;;;;103786;1290;545368;-75
2023/09/12 05:18:12;;;;;;;15.60;11.90;;;;;;;;;;104290;1285;545661;-76
2023/09/12 05:21:49;;;;;;;16.70;12.10;;;;;;;;;;103736;1291;545028;-75
2023/09/12 05:25:27;;;;;;;15.10;10.30;;;;;;;;;;103648;1292;545767;-75
2023/09/12 05:29:05;;;;;;;18.40;12.20;;;;;;;;;;103800;1292;544644;-75
2023/09/12 05:32:42;;;;;;;17.60;11.10;;;;;;;;;;103476;1294;545594;-76
2023/09/12 05:36:19;;;;;;;20.80;11.80;;;;;;;;;;103832;1294;544988;-76
2023/09/12 05:39:57;;;;;;;20.60;12.20;;;;;;;;;;103935;1295;544976;-76
2023/09/12 05:43:34;;;;;;;23.20;11.60;;;;;;;;;;104104;1289;545706;-76
2023/09/12 05:47:11;;;;;;;18.40;12.00;;;;;;;;;;104749;1288;545017;-76
2023/09/12 05:50:49;;;;;;;22.10;12.30;;;;;;;;;;105399;1290;544722;-76
2023/09/12 05:54:26;;;;;;;24.80;13.20;;;;;;;;;;103783;1291;544999;-76
2023/09/12 05:58:05;;;;;;;18.90;10.80;;;;;;;;;;103768;1292;545341;-75
2023/09/12 06:01:41;;;;;;;20.50;12.00;;;;;;;;;;103761;1290;544777;-76
2023/09/12 06:05:19;;;;;;;23.50;12.50;;;;;;;;;;103782;1292;544906;-76
2023/09/12 06:19:20;;;;;;;31.10;14.70;;;;;;;;;;104838;1283;549825;-75
2023/09/12 06:22:12;;;;;;;35.70;14.80;;;;;;;;;;104149;1286;545332;-75
2023/09/12 06:36:18;;;;;;;21.00;10.30;;;;;;;;;;104718;1285;549683;-74
2023/09/12 06:39:10;;;;;;;27.40;11.50;;;;;;;;;;103765;1292;544716;-76
2023/09/12 06:42:48;;;;;;;22.10;9.80;;;;;;;;;;104195;1288;545937;-74
2023/09/12 06:46:26;;;;;;;21.90;10.50;;;;;;;;;;104494;1282;545428;-75
2023/09/12 06:50:04;;;;;;;22.30;10.00;;;;;;;;;;103714;1292;544930;-75
2023/09/12 06:53:40;;;;;;;26.20;11.40;;;;;;;;;;103801;1289;544806;-76
2023/09/12 06:57:21;;;;;;;26.40;9.70;;;;;;;;;;103621;1292;544892;-76
2023/09/12 07:01:02;;;;;;;28.70;10.80;;;;;;;;;;103467;1295;544933;-75
2023/09/12 07:14:56;;;;;;;16.00;10.60;;;;;;;;;;104737;1284;549819;-74
2023/09/12 07:17:48;;;;;;;15.40;10.10;;;;;;;;;;103781;1291;545547;-76
2023/09/12 07:21:26;;;;;;;19.00;10.90;;;;;;;;;;103835;1289;545470;-74
2023/09/12 07:25:03;;;;;;;15.60;10.60;;;;;;;;;;103769;1289;544951;-74
2023/09/12 07:28:49;;;;;;;15.50;10.80;;;;;;;;;;103558;1292;549630;-74
2023/09/12 07:32:19;;;;;;;14.90;10.60;;;;;;;;;;103884;1289;544769;-74
2023/09/12 07:35:55;;;;;;;19.60;11.70;;;;;;;;;;103693;1292;544905;-73
2023/09/12 07:39:33;;;;;;;16.60;10.60;;;;;;;;;;103768;1291;545320;-74
2023/09/12 07:43:07;;;;;;;17.70;11.20;;;;;;;;;;103628;1291;544799;-73
2023/09/12 07:46:49;;;;;;;17.20;10.80;;;;;;;;;;104036;1289;545518;-75
2023/09/12 07:50:28;;;;;;;17.80;11.20;;;;;;;;;;103779;1292;546034;-73
2023/09/12 07:54:04;;;;;;;19.60;11.20;;;;;;;;;;103799;1292;546004;-74
2023/09/12 07:57:43;;;;;;;17.00;10.10;;;;;;;;;;104362;1285;544969;-74
2023/09/12 08:01:19;;;;;;;16.80;9.90;;;;;;;;;;103795;1291;545352;-74
2023/09/12 08:04:56;;;;;;;18.80;10.80;;;;;;;;;;103776;1291;544730;-75
2023/09/12 08:08:34;;;;;;;16.00;10.50;;;;;;;;;;103762;1291;544939;-74
2023/09/12 08:12:11;;;;;;;14.70;10.10;;;;;;;;;;103734;1291;545151;-73
2023/09/12 08:15:49;;;;;;;13.00;8.50;;;;;;;;;;103832;1292;544913;-73
2023/09/12 08:19:27;;;;;;;11.60;8.90;;;;;;;;;;103630;1291;544822;-73
2023/09/12 08:23:04;;;;;;;12.00;8.50;;;;;;;;;;103776;1290;545545;-75
2023/09/12 08:26:42;;;;;;;11.80;8.70;;;;;;;;;;103695;1292;546176;-74
2023/09/12 08:30:18;;;;;;;13.50;8.20;;;;;;;;;;103778;1291;545006;-74
2023/09/12 08:33:57;;;;;;;11.00;7.20;;;;;;;;;;104020;1289;544855;-73
2023/09/12 08:37:33;;;;;;;11.50;7.40;;;;;;;;;;103921;1288;545136;-74
2023/09/12 08:41:12;;;;;;;12.10;8.50;;;;;;;;;;103771;1291;545233;-76
2023/09/12 08:44:49;;;;;;;11.40;8.00;;;;;;;;;;104259;1284;545098;-75
2023/09/12 08:48:29;;;;;;;11.20;7.90;;;;;;;;;;103757;1289;544765;-73
2023/09/12 08:52:04;;;;;;;11.50;7.80;;;;;;;;;;103746;1289;544837;-75
2023/09/12 08:55:41;;;;;;;10.90;6.80;;;;;;;;;;103672;1292;544744;-73
2023/09/12 08:59:20;;;;;;;10.10;6.80;;;;;;;;;;103719;1289;545021;-75
2023/09/12 09:02:56;;;;;;;16.60;6.80;;;;;;;;;;103758;1291;544953;-73
2023/09/12 09:06:37;;;;;;;11.40;6.50;;;;;;;;;;103800;1288;545450;-73
2023/09/12 09:10:16;;;;;;;13.70;6.60;;;;;;;;;;104265;1285;545248;-76
2023/09/12 09:13:49;;;;;;;11.00;6.60;;;;;;;;;;103742;1290;545459;-75
2023/09/12 09:17:28;;;;;;;11.00;7.10;;;;;;;;;;103925;1288;545591;-75
2023/09/12 09:21:16;;;;;;;9.90;7.10;;;;;;;;;;103733;1291;544989;-75
2023/09/12 09:24:41;;;;;;;9.10;6.30;;;;;;;;;;103747;1291;545416;-73
2023/09/12 09:28:19;;;;;;;10.40;6.50;;;;;;;;;;103873;1289;545659;-75
2023/09/12 09:31:57;;;;;;;9.50;6.70;;;;;;;;;;103767;1289;544760;-75
2023/09/12 09:35:34;;;;;;;13.10;7.60;;;;;;;;;;103718;1292;544785;-75
2023/09/12 09:39:12;;;;;;;12.20;7.10;;;;;;;;;;103792;1290;545412;-74
2023/09/12 09:42:53;;;;;;;10.20;6.60;;;;;;;;;;103680;1295;544728;-75
2023/09/12 09:46:26;;;;;;;9.80;5.90;;;;;;;;;;103612;1297;545404;-73
2023/09/12 09:50:03;;;;;;;9.30;6.10;;;;;;;;;;103678;1292;544937;-73
2023/09/12 09:53:43;;;;;;;9.20;6.40;;;;;;;;;;103803;1292;544787;-73
2023/09/12 09:57:18;;;;;;;10.60;6.80;;;;;;;;;;103910;1289;544754;-73
2023/09/12 10:00:56;;;;;;;10.60;6.50;;;;;;;;;;103775;1290;544995;-73
2023/09/12 10:04:34;;;;;;;11.10;6.50;;;;;;;;;;103768;1300;545455;-73
2023/09/12 10:08:12;;;;;;;11.10;6.60;;;;;;;;;;103797;1289;544980;-73
2023/09/12 10:11:48;;;;;;;10.30;7.00;;;;;;;;;;103770;1291;544833;-73
2023/09/12 10:15:28;;;;;;;9.60;6.60;;;;;;;;;;103723;1295;545657;-73
2023/09/12 10:19:15;;;;;;;10.00;5.80;;;;;;;;;;103742;1292;546521;-75
2023/09/12 10:23:08;;;;;;;10.60;6.30;;;;;;;;;;103583;1294;548024;-73
2023/09/12 10:26:19;;;;;;;9.80;7.20;;;;;;;;;;103827;1292;545624;-73
2023/09/12 10:29:59;;;;;;;9.10;7.00;;;;;;;;;;103719;1289;544705;-73
2023/09/12 10:33:32;;;;;;;10.90;6.00;;;;;;;;;;103772;1292;545112;-73
2023/09/12 10:37:12;;;;;;;10.50;6.10;;;;;;;;;;103633;1293;544712;-73
2023/09/12 10:40:48;;;;;;;13.00;7.00;;;;;;;;;;104003;1288;545030;-73
2023/09/12 10:44:26;;;;;;;11.80;6.80;;;;;;;;;;103756;1289;544996;-73
2023/09/12 10:47:59;;;;;;;9.90;6.90;;;;;;;;;;103812;1289;545904;-73
2023/09/12 10:51:43;;;;;;;10.30;7.10;;;;;;;;;;103865;1289;544700;-73
2023/09/12 10:55:17;;;;;;;9.70;6.00;;;;;;;;;;103814;1293;545007;-73
2023/09/12 10:59:12;;;;;;;11.00;7.10;;;;;;;;;;103618;1292;545588;-73
2023/09/12 11:02:38;;;;;;;10.10;6.50;;;;;;;;;;104005;1288;545026;-76
2023/09/12 11:06:23;;;;;;;10.30;7.10;;;;;;;;;;103658;1289;547768;-76
2023/09/12 11:10:18;;;;;;;10.00;6.50;;;;;;;;;;103631;1289;548024;-74
2023/09/12 11:13:39;;;;;;;10.20;7.20;;;;;;;;;;103773;1288;544970;-74
2023/09/12 11:17:22;;;;;;;10.80;7.20;;;;;;;;;;103554;1291;548200;-73
2023/09/12 11:21:03;;;;;;;12.10;7.40;;;;;;;;;;103768;1289;544830;-74
2023/09/12 11:24:23;;;;;;;10.90;7.60;;;;;;;;;;103835;1289;545908;-73
2023/09/12 11:28:00;;;;;;;12.80;7.10;;;;;;;;;;103738;1289;544854;-73
2023/09/12 11:31:41;;;;;;;11.30;7.10;;;;;;;;;;103856;1289;546021;-75
2023/09/12 11:35:14;;;;;;;10.00;7.70;;;;;;;;;;104053;1290;545297;-73
2023/09/12 11:38:52;;;;;;;13.10;7.70;;;;;;;;;;103782;1289;545070;-73
2023/09/12 11:42:30;;;;;;;12.40;7.10;;;;;;;;;;103754;1290;544879;-73
2023/09/12 11:46:07;;;;;;;12.50;7.20;;;;;;;;;;104074;1289;545558;-73
2023/09/12 11:49:45;;;;;;;11.90;7.20;;;;;;;;;;103637;1292;544768;-75
2023/09/12 11:53:25;;;;;;;12.30;7.30;;;;;;;;;;103745;1292;545639;-73
2023/09/12 11:57:07;;;;;;;12.30;7.90;;;;;;;;;;103489;1293;548590;-73
2023/09/12 12:00:37;;;;;;;10.20;7.90;;;;;;;;;;103790;1290;544888;-73
2023/09/12 12:04:15;;;;;;;9.40;7.60;;;;;;;;;;103777;1290;544835;-75
2023/09/12 12:07:53;;;;;;;9.20;6.60;;;;;;;;;;104044;1288;544962;-73
2023/09/12 12:11:31;;;;;;;11.70;7.60;;;;;;;;;;103649;1295;545652;-73
2023/09/12 12:15:13;;;;;;;10.90;7.60;;;;;;;;;;103755;1291;545562;-73
2023/09/12 12:18:41;;;;;;;9.80;7.50;;;;;;;;;;103931;1288;544917;-73
2023/09/12 12:22:23;;;;;;;11.60;7.60;;;;;;;;;;103776;1300;544937;-73
2023/09/12 12:26:07;;;;;;;10.20;6.30;;;;;;;;;;104050;1294;545191;-73
2023/09/12 12:29:41;;;;;;;11.40;7.10;;;;;;;;;;103767;1292;544964;-73
2023/09/12 12:33:16;;;;;;;11.80;7.30;;;;;;;;;;103910;1288;545356;-73
2023/09/12 12:36:55;;;;;;;10.90;6.90;;;;;;;;;;103713;1289;545688;-73
2023/09/12 12:40:31;;;;;;;10.10;6.70;;;;;;;;;;103607;1297;545501;-73
2023/09/12 12:44:08;;;;;;;11.60;7.40;;;;;;;;;;103719;1293;545285;-75
2023/09/12 12:47:46;;;;;;;9.70;7.20;;;;;;;;;;103777;1290;544810;-73
2023/09/12 12:51:24;;;;;;;9.40;7.00;;;;;;;;;;104085;1288;544848;-73
2023/09/12 12:55:07;;;;;;;10.70;7.50;;;;;;;;;;103626;1296;545263;-73
2023/09/12 12:58:37;;;;;;;11.00;7.30;;;;;;;;;;103772;1289;545432;-73
2023/09/12 13:02:15;;;;;;;12.90;7.40;;;;;;;;;;103726;1291;545779;-73
2023/09/12 13:05:53;;;;;;;10.20;6.80;;;;;;;;;;103774;1302;545055;-73
2023/09/12 13:09:30;;;;;;;10.80;7.90;;;;;;;;;;103736;1295;545667;-73
2023/09/12 13:13:08;;;;;;;8.60;6.30;;;;;;;;;;103752;1292;545064;-73
2023/09/12 13:16:45;;;;;;;13.00;7.30;;;;;;;;;;103870;1301;544990;-73
2023/09/12 13:20:23;;;;;;;10.20;6.70;;;;;;;;;;104033;1289;544781;-73
2023/09/12 13:24:00;;;;;;;10.50;7.70;;;;;;;;;;103746;1291;544952;-75
2023/09/12 13:27:38;;;;;;;10.10;7.70;;;;;;;;;;103887;1292;544588;-73
2023/09/12 13:31:15;;;;;;;11.10;8.60;;;;;;;;;;103694;1292;544942;-73
2023/09/12 13:34:52;;;;;;;21.00;13.10;;;;;;;;;;103669;1290;545439;-73
2023/09/12 13:38:30;;;;;;;13.10;8.40;;;;;;;;;;103736;1292;544802;-76
2023/09/12 13:42:09;;;;;;;11.60;6.90;;;;;;;;;;103709;1292;545054;-73
2023/09/12 13:45:45;;;;;;;9.70;6.80;;;;;;;;;;103909;1289;545969;-73
2023/09/12 13:49:22;;;;;;;10.80;7.50;;;;;;;;;;103989;1291;545019;-73
2023/09/12 13:53:03;;;;;;;13.90;7.70;;;;;;;;;;103695;1292;545796;-73
2023/09/12 13:56:37;;;;;;;12.90;7.90;;;;;;;;;;103838;1289;544783;-73
2023/09/12 14:00:15;;;;;;;13.50;7.30;;;;;;;;;;103758;1295;545931;-73
2023/09/12 14:03:53;;;;;;;13.10;7.10;;;;;;;;;;103717;1289;545711;-73
2023/09/12 14:07:30;;;;;;;10.30;7.20;;;;;;;;;;104154;1288;544856;-74
2023/09/12 14:11:07;;;;;;;13.30;7.80;;;;;;;;;;103774;1292;545372;-73
2023/09/12 14:14:44;;;;;;;10.60;7.50;;;;;;;;;;103865;1290;545171;-73
2023/09/12 14:18:22;;;;;;;12.60;7.70;;;;;;;;;;103728;1291;544785;-74
2023/09/12 14:22:00;;;;;;;9.60;7.60;;;;;;;;;;103598;1296;544990;-73
2023/09/12 14:25:37;;;;;;;13.50;8.70;;;;;;;;;;103751;1292;544875;-73
2023/09/12 14:29:15;;;;;;;18.00;11.10;;;;;;;;;;103718;1289;545867;-73
2023/09/12 14:32:52;;;;;;;25.20;13.70;;;;;;;;;;103960;1292;545524;-75
2023/09/12 14:36:31;;;;;;;13.80;8.60;;;;;;;;;;103678;1292;544926;-76
2023/09/12 14:40:07;;;;;;;12.00;7.30;;;;;;;;;;103934;1291;545271;-74
2023/09/12 14:43:44;;;;;;;13.40;9.10;;;;;;;;;;103771;1292;544842;-77
2023/09/12 14:47:22;;;;;;;15.40;11.00;;;;;;;;;;104111;1285;544907;-76
2023/09/12 14:51:01;;;;;;;25.90;22.80;;;;;;;;;;103838;1288;544922;-74
2023/09/12 14:54:37;;;;;;;30.40;22.80;;;;;;;;;;104340;1285;544958;-73
2023/09/12 14:58:14;;;;;;;20.70;13.20;;;;;;;;;;103657;1290;544906;-76
2023/09/12 15:01:52;;;;;;;29.90;20.50;;;;;;;;;;103828;1291;544821;-73
2023/09/12 15:05:29;;;;;;;20.40;15.30;;;;;;;;;;103682;1295;544960;-77
2023/09/12 15:09:06;;;;;;;15.40;11.70;;;;;;;;;;103870;1289;545346;-74
2023/09/12 15:12:44;;;;;;;20.50;12.50;;;;;;;;;;103745;1290;546467;-73
2023/09/12 15:16:22;;;;;;;19.70;9.60;;;;;;;;;;103744;1292;545573;-74
2023/09/12 15:19:59;;;;;;;21.40;9.50;;;;;;;;;;104634;1280;545307;-75
2023/09/12 15:23:37;;;;;;;15.60;8.90;;;;;;;;;;103899;1289;545737;-76
2023/09/12 15:27:14;;;;;;;14.70;9.20;;;;;;;;;;103874;1288;544997;-74
2023/09/12 15:30:51;;;;;;;18.10;8.90;;;;;;;;;;103741;1288;545425;-77
2023/09/12 15:34:29;;;;;;;14.70;8.40;;;;;;;;;;103720;1289;544772;-73
2023/09/12 15:38:06;;;;;;;12.30;7.30;;;;;;;;;;103705;1292;545576;-77
2023/09/12 15:41:45;;;;;;;11.80;8.30;;;;;;;;;;103750;1289;544978;-76
2023/09/12 15:45:21;;;;;;;13.20;8.40;;;;;;;;;;103808;1292;544791;-74
2023/09/12 15:48:59;;;;;;;12.00;8.10;;;;;;;;;;103691;1291;544856;-76
2023/09/12 15:52:40;;;;;;;13.10;7.80;;;;;;;;;;103641;1292;546011;-76
2023/09/12 16:06:36;;;;;;;12.60;8.30;;;;;;;;;;104630;1291;551280;-75
2023/09/12 16:09:28;;;;;;;13.30;8.40;;;;;;;;;;103490;1294;545054;-73
2023/09/12 16:13:06;;;;;;;13.70;8.50;;;;;;;;;;103711;1290;544857;-74
2023/09/12 16:16:43;;;;;;;14.20;8.50;;;;;;;;;;103796;1292;545062;-75
2023/09/12 16:20:21;;;;;;;13.90;8.40;;;;;;;;;;103985;1291;544906;-74
2023/09/12 16:23:58;;;;;;;13.90;8.70;;;;;;;;;;104083;1286;545387;-74
2023/09/12 16:27:36;;;;;;;12.40;8.40;;;;;;;;;;104002;1292;544999;-76
2023/09/12 16:31:13;;;;;;;14.10;9.50;;;;;;;;;;103732;1289;545857;-76
2023/09/12 16:34:51;;;;;;;14.20;9.30;;;;;;;;;;103855;1291;545388;-74
2023/09/12 16:38:34;;;;;;;16.60;9.00;;;;;;;;;;103593;1296;548304;-76
2023/09/12 16:42:05;;;;;;;13.90;9.50;;;;;;;;;;103975;1288;545510;-74
2023/09/12 16:45:43;;;;;;;17.00;8.90;;;;;;;;;;104046;1289;545034;-74
2023/09/12 16:49:16;;;;;;;14.00;8.70;;;;;;;;;;103855;1293;544786;-74
2023/09/12 16:52:59;;;;;;;13.40;9.00;;;;;;;;;;103794;1298;545199;-74
2023/09/12 16:56:36;;;;;;;11.00;7.90;;;;;;;;;;103709;1289;544835;-74
2023/09/12 17:00:14;;;;;;;15.50;8.90;;;;;;;;;;103737;1291;545130;-76
2023/09/12 17:03:57;;;;;;;14.90;8.50;;;;;;;;;;103927;1292;545385;-74
2023/09/12 17:07:32;;;;;;;14.00;8.80;;;;;;;;;;103927;1288;545041;-74
2023/09/12 17:11:06;;;;;;;14.70;9.60;;;;;;;;;;103773;1292;545676;-74
2023/09/12 17:14:44;;;;;;;20.20;14.20;;;;;;;;;;103859;1292;544968;-74
2023/09/12 17:18:22;;;;;;;19.50;14.70;;;;;;;;;;103770;1291;545012;-74
2023/09/12 17:21:58;;;;;;;21.00;14.00;;;;;;;;;;103511;1295;544837;-74
2023/09/12 17:25:36;;;;;;;15.90;11.90;;;;;;;;;;103839;1292;545345;-75
2023/09/12 17:29:18;;;;;;;14.80;10.70;;;;;;;;;;103914;1289;545897;-75
2023/09/12 17:43:14;;;;;;;15.20;10.40;;;;;;;;;;104434;1288;549914;-74
2023/09/12 17:56:37;;;;;;;12.50;8.40;;;;;;;;;;104756;1285;550557;-74
2023/09/12 17:59:29;;;;;;;13.20;8.80;;;;;;;;;;103710;1290;545226;-74
2023/09/12 18:03:26;;;;;;;16.10;10.00;;;;;;;;;;103362;1298;547975;-74
2023/09/12 18:17:25;;;;;;;15.70;9.90;;;;;;;;;;104591;1283;553468;-74
2023/09/12 18:20:14;;;;;;;18.60;10.20;;;;;;;;;;103807;1292;544840;-74
2023/09/12 18:48:07;;;;;;;16.50;10.90;;;;;;;;;;104769;1292;551760;-74
2023/09/12 18:51:00;;;;;;;17.70;11.50;;;;;;;;;;103925;1289;544855;-74
2023/09/12 19:05:03;;;;;;;17.30;12.60;;;;;;;;;;104985;1286;549768;-76
2023/09/12 19:07:50;;;;;;;19.30;12.50;;;;;;;;;;103986;1289;546114;-76
2023/09/12 19:11:33;;;;;;;16.90;12.00;;;;;;;;;;103731;1292;545056;-77
2023/09/12 19:15:11;;;;;;;19.50;13.30;;;;;;;;;;103591;1288;545000;-76
2023/09/12 19:18:53;;;;;;;21.00;13.50;;;;;;;;;;104282;1286;545090;-76
2023/09/12 19:22:25;;;;;;;22.70;13.90;;;;;;;;;;104276;1289;545202;-78
2023/09/12 19:26:02;;;;;;;21.30;13.30;;;;;;;;;;103562;1293;544731;-77
2023/09/12 19:29:55;;;;;;;22.10;13.80;;;;;;;;;;103478;1292;545210;-77
2023/09/12 19:33:13;;;;;;;18.30;13.10;;;;;;;;;;103516;1294;544954;-76
2023/09/12 19:36:56;;;;;;;22.80;12.40;;;;;;;;;;103832;1291;544726;-76
2023/09/12 19:40:58;;;;;;;20.00;13.90;;;;;;;;;;103643;1292;545390;-75
2023/09/12 19:44:10;;;;;;;22.80;15.00;;;;;;;;;;103626;1291;545561;-76
2023/09/12 19:47:44;;;;;;;25.10;15.00;;;;;;;;;;103749;1292;545034;-75
2023/09/12 19:51:23;;;;;;;16.90;12.20;;;;;;;;;;103794;1288;544898;-76
2023/09/12 20:05:28;;;;;;;20.50;12.90;;;;;;;;;;104697;1284;550093;-75
2023/09/12 20:08:20;;;;;;;18.50;13.50;;;;;;;;;;103596;1297;544842;-76
2023/09/12 20:11:59;;;;;;;21.80;14.50;;;;;;;;;;103614;1292;544981;-76
2023/09/12 20:15:36;;;;;;;24.80;14.60;;;;;;;;;;103770;1290;544927;-76
2023/09/12 20:19:13;;;;;;;27.00;15.00;;;;;;;;;;103726;1289;544970;-76
2023/09/12 20:22:50;;;;;;;20.90;13.30;;;;;;;;;;103927;1292;544717;-76
2023/09/12 20:26:28;;;;;;;18.00;12.20;;;;;;;;;;103716;1294;544778;-76
2023/09/12 20:30:05;;;;;;;17.30;11.40;;;;;;;;;;103751;1299;544903;-76
2023/09/12 20:33:42;;;;;;;16.20;12.40;;;;;;;;;;103769;1292;544949;-74
2023/09/12 20:37:20;;;;;;;14.80;12.40;;;;;;;;;;103685;1293;545405;-74
2023/09/12 20:40:57;;;;;;;17.30;11.10;;;;;;;;;;103657;1293;545058;-75
2023/09/12 20:44:35;;;;;;;14.30;10.70;;;;;;;;;;103827;1289;544953;-76
2023/09/12 20:48:12;;;;;;;15.50;11.30;;;;;;;;;;103714;1292;546286;-75
2023/09/12 20:51:50;;;;;;;15.60;11.80;;;;;;;;;;103748;1289;545738;-76
2023/09/12 20:55:27;;;;;;;18.70;12.10;;;;;;;;;;103681;1291;545041;-76
2023/09/12 20:59:04;;;;;;;14.80;10.80;;;;;;;;;;104145;1289;545054;-76
2023/09/12 21:02:45;;;;;;;13.90;11.10;;;;;;;;;;104510;1288;544971;-75
2023/09/12 21:06:20;;;;;;;16.30;12.30;;;;;;;;;;103844;1290;545356;-76
2023/09/12 21:09:57;;;;;;;15.00;11.70;;;;;;;;;;103740;1298;544783;-76
2023/09/12 21:13:34;;;;;;;16.00;12.00;;;;;;;;;;103776;1289;544801;-76
2023/09/12 21:17:12;;;;;;;15.70;11.00;;;;;;;;;;103747;1289;544963;-75
2023/09/12 21:20:52;;;;;;;15.70;11.40;;;;;;;;;;103819;1289;545528;-75
2023/09/12 21:24:26;;;;;;;16.10;11.60;;;;;;;;;;103740;1291;545043;-75
2023/09/12 21:28:04;;;;;;;18.30;12.00;;;;;;;;;;104785;1287;545101;-76
2023/09/12 21:31:42;;;;;;;15.20;12.20;;;;;;;;;;104280;1286;544808;-75
2023/09/12 21:35:19;;;;;;;15.50;11.10;;;;;;;;;;104094;1286;544964;-75
2023/09/12 21:38:57;;;;;;;13.70;10.60;;;;;;;;;;103593;1291;546763;-76
2023/09/12 21:42:34;;;;;;;15.30;11.50;;;;;;;;;;103723;1295;545065;-76
2023/09/12 21:46:12;;;;;;;14.40;11.80;;;;;;;;;;103725;1289;544914;-76
2023/09/12 21:49:49;;;;;;;15.80;12.20;;;;;;;;;;104628;1286;545067;-76
2023/09/12 21:53:26;;;;;;;16.20;10.40;;;;;;;;;;104710;1283;545450;-75
2023/09/12 21:57:04;;;;;;;15.10;10.90;;;;;;;;;;103735;1295;544805;-76
2023/09/12 22:00:42;;;;;;;16.30;12.50;;;;;;;;;;103860;1292;545547;-76
2023/09/12 22:04:19;;;;;;;17.60;12.60;;;;;;;;;;104025;1289;545087;-76
2023/09/12 22:07:56;;;;;;;15.90;12.40;;;;;;;;;;103707;1290;544696;-76
2023/09/12 22:11:33;;;;;;;17.70;11.60;;;;;;;;;;103729;1290;546050;-76
2023/09/12 22:15:18;;;;;;;14.60;11.30;;;;;;;;;;103655;1302;548098;-76
2023/09/12 22:18:48;;;;;;;14.40;11.70;;;;;;;;;;103742;1289;545446;-76
2023/09/12 22:22:28;;;;;;;15.30;10.90;;;;;;;;;;103740;1291;544734;-76
2023/09/12 22:26:10;;;;;;;14.50;10.80;;;;;;;;;;103730;1292;544928;-76
2023/09/12 22:29:42;;;;;;;14.30;11.00;;;;;;;;;;103766;1292;544795;-76